createdAt,value
2016-12-05T00:00:22.643Z,0
2016-12-05T00:01:31.647Z,0
2016-12-05T00:02:40.340Z,0
2016-12-05T00:03:49.027Z,0
2016-12-05T00:04:57.718Z,0
2016-12-05T00:06:06.412Z,0
2016-12-05T00:07:15.105Z,0
2016-12-05T00:08:23.800Z,0
2016-12-05T00:09:32.487Z,0
2016-12-05T00:10:41.503Z,0
2016-12-05T00:11:50.193Z,0
2016-12-05T00:12:58.883Z,0
2016-12-05T00:14:07.576Z,0
2016-12-05T00:15:16.275Z,0
2016-12-05T00:16:24.968Z,0
2016-12-05T00:17:33.659Z,0
2016-12-05T00:18:42.349Z,0
2016-12-05T00:19:51.045Z,0
2016-12-05T00:20:59.737Z,0
2016-12-05T00:22:08.434Z,0
2016-12-05T00:23:17.127Z,0
2016-12-05T00:24:25.822Z,0
2016-12-05T00:25:34.517Z,0
2016-12-05T00:26:43.212Z,0
2016-12-05T00:27:52.224Z,0
2016-12-05T00:29:00.910Z,0
2016-12-05T00:30:09.607Z,0
2016-12-05T00:31:18.299Z,0
2016-12-05T00:32:26.988Z,0
2016-12-05T00:33:35.681Z,0
2016-12-05T00:34:44.380Z,0
2016-12-05T00:35:53.071Z,0
2016-12-05T00:37:01.768Z,0
2016-12-05T00:38:10.470Z,0
2016-12-05T00:39:19.160Z,0
2016-12-05T00:40:27.850Z,0
2016-12-05T00:41:36.568Z,0
2016-12-05T00:42:45.259Z,0
2016-12-05T00:43:53.950Z,0
2016-12-05T00:45:02.640Z,0
2016-12-05T00:46:11.330Z,0
2016-12-05T00:47:20.026Z,0
2016-12-05T00:48:28.713Z,0
2016-12-05T00:49:37.410Z,0
2016-12-05T00:50:46.110Z,0
2016-12-05T00:51:55.117Z,0
2016-12-05T00:53:03.812Z,0
2016-12-05T00:54:12.506Z,0
2016-12-05T00:55:21.192Z,0
2016-12-05T00:56:29.890Z,0
2016-12-05T00:57:38.586Z,0
2016-12-05T00:58:47.276Z,0
2016-12-05T00:59:55.967Z,0
2016-12-05T01:01:04.659Z,0
2016-12-05T01:02:13.356Z,0
2016-12-05T01:03:22.044Z,0
2016-12-05T01:04:30.740Z,0
2016-12-05T01:05:39.436Z,0
2016-12-05T01:06:48.132Z,0
2016-12-05T01:07:57.136Z,0
2016-12-05T01:09:05.825Z,0
2016-12-05T01:10:14.515Z,0
2016-12-05T01:11:23.207Z,0
2016-12-05T01:12:31.902Z,0
2016-12-05T01:13:40.596Z,0
2016-12-05T01:14:49.294Z,0
2016-12-05T01:15:57.986Z,0
2016-12-05T01:17:06.683Z,0
2016-12-05T01:18:15.374Z,0
2016-12-05T01:19:24.077Z,0
2016-12-05T01:20:32.764Z,0
2016-12-05T01:21:41.465Z,0
2016-12-05T01:22:50.155Z,0
2016-12-05T01:23:58.852Z,0
2016-12-05T01:25:07.551Z,0
2016-12-05T01:26:16.243Z,0
2016-12-05T01:27:24.936Z,0
2016-12-05T01:28:33.656Z,0
2016-12-05T01:29:42.348Z,0
2016-12-05T01:30:51.042Z,0
2016-12-05T01:32:00.359Z,0
2016-12-05T01:33:09.050Z,0
2016-12-05T01:34:17.744Z,0
2016-12-05T01:35:26.433Z,0
2016-12-05T01:36:35.124Z,0
2016-12-05T01:37:43.822Z,0
2016-12-05T01:38:52.517Z,0
2016-12-05T01:40:01.212Z,0
2016-12-05T01:41:09.902Z,0
2016-12-05T01:42:18.597Z,0
2016-12-05T01:43:27.287Z,0
2016-12-05T01:44:35.984Z,0
2016-12-05T01:45:44.710Z,0
2016-12-05T01:46:53.395Z,0
2016-12-05T01:48:02.085Z,0
2016-12-05T01:49:10.775Z,0
2016-12-05T01:50:19.491Z,0
2016-12-05T01:51:28.182Z,0
2016-12-05T01:52:36.871Z,0
2016-12-05T01:53:45.563Z,0
2016-12-05T01:54:54.256Z,0
2016-12-05T01:56:03.267Z,0
2016-12-05T01:57:11.964Z,0
2016-12-05T01:58:20.654Z,0
2016-12-05T01:59:29.346Z,0
2016-12-05T02:00:38.038Z,0
2016-12-05T02:01:46.731Z,0
2016-12-05T02:02:55.423Z,0
2016-12-05T02:04:04.118Z,0
2016-12-05T02:05:12.817Z,0
2016-12-05T02:06:21.505Z,0
2016-12-05T02:07:30.195Z,0
2016-12-05T02:08:38.887Z,0
2016-12-05T02:09:47.578Z,0
2016-12-05T02:10:56.270Z,0
2016-12-05T02:12:04.962Z,0
2016-12-05T02:13:13.679Z,0
2016-12-05T02:14:22.370Z,0
2016-12-05T02:15:31.068Z,0
2016-12-05T02:16:39.761Z,0
2016-12-05T02:17:48.456Z,0
2016-12-05T02:18:57.148Z,0
2016-12-05T02:20:05.843Z,0
2016-12-05T02:21:14.544Z,0
2016-12-05T02:22:23.231Z,0
2016-12-05T02:23:31.920Z,0
2016-12-05T02:24:40.608Z,0
2016-12-05T02:25:49.305Z,0
2016-12-05T02:26:57.996Z,0
2016-12-05T02:28:06.696Z,0
2016-12-05T02:29:15.389Z,0
2016-12-05T02:30:24.083Z,0
2016-12-05T02:31:32.784Z,0
2016-12-05T02:32:41.476Z,0
2016-12-05T02:33:50.170Z,0
2016-12-05T02:34:58.863Z,0
2016-12-05T02:36:07.556Z,0
2016-12-05T02:37:16.251Z,0
2016-12-05T02:38:24.971Z,0
2016-12-05T02:39:33.663Z,0
2016-12-05T02:40:42.357Z,0
2016-12-05T02:41:51.053Z,0
2016-12-05T02:42:59.743Z,0
2016-12-05T02:44:08.433Z,0
2016-12-05T02:45:17.122Z,0
2016-12-05T02:46:25.808Z,0
2016-12-05T02:47:34.498Z,0
2016-12-05T02:48:43.189Z,0
2016-12-05T02:49:51.887Z,0
2016-12-05T02:51:00.888Z,0
2016-12-05T02:52:09.896Z,0
2016-12-05T02:53:18.591Z,0
2016-12-05T02:54:27.295Z,0
2016-12-05T02:55:35.988Z,0
2016-12-05T02:56:44.710Z,0
2016-12-05T02:57:53.407Z,0
2016-12-05T02:59:02.134Z,0
2016-12-05T03:00:10.840Z,0
2016-12-05T03:01:19.535Z,0
2016-12-05T03:02:28.232Z,0
2016-12-05T03:03:36.929Z,0
2016-12-05T03:04:45.631Z,0
2016-12-05T03:05:54.323Z,0
2016-12-05T03:07:03.048Z,0
2016-12-05T03:08:11.737Z,0
2016-12-05T03:09:20.421Z,0
2016-12-05T03:10:29.116Z,0
2016-12-05T03:11:37.808Z,0
2016-12-05T03:12:46.526Z,0
2016-12-05T03:13:55.217Z,0
2016-12-05T03:15:03.908Z,0
2016-12-05T03:16:12.599Z,0
2016-12-05T03:17:21.308Z,0
2016-12-05T03:18:30.005Z,0
2016-12-05T03:19:38.723Z,0
2016-12-05T03:20:47.413Z,0
2016-12-05T03:21:56.153Z,0
2016-12-05T03:23:04.846Z,0
2016-12-05T03:24:13.531Z,0
2016-12-05T03:25:22.218Z,0
2016-12-05T03:26:30.915Z,0
2016-12-05T03:27:39.602Z,0
2016-12-05T03:28:48.300Z,0
2016-12-05T03:29:56.990Z,0
2016-12-05T03:31:05.678Z,0
2016-12-05T03:32:14.366Z,0
2016-12-05T03:33:23.054Z,0
2016-12-05T03:34:31.753Z,0
2016-12-05T03:35:40.452Z,0
2016-12-05T03:36:49.145Z,0
2016-12-05T03:37:57.839Z,0
2016-12-05T03:39:06.534Z,0
2016-12-05T03:40:15.221Z,0
2016-12-05T03:41:23.911Z,0
2016-12-05T03:42:32.601Z,0
2016-12-05T03:43:41.287Z,0
2016-12-05T03:44:50.289Z,0
2016-12-05T03:45:58.981Z,0
2016-12-05T03:47:07.675Z,0
2016-12-05T03:48:16.364Z,0
2016-12-05T03:49:25.057Z,0
2016-12-05T03:50:33.749Z,0
2016-12-05T03:51:42.437Z,0
2016-12-05T03:52:51.126Z,0
2016-12-05T03:53:59.823Z,0
2016-12-05T03:55:08.515Z,0
2016-12-05T03:56:17.206Z,0
2016-12-05T03:57:25.896Z,0
2016-12-05T03:58:34.588Z,0
2016-12-05T03:59:43.281Z,0
2016-12-05T04:00:51.980Z,0
2016-12-05T04:02:00.675Z,0
2016-12-05T04:03:09.367Z,0
2016-12-05T04:04:18.057Z,0
2016-12-05T04:05:26.756Z,0
2016-12-05T04:06:35.448Z,0
2016-12-05T04:07:44.142Z,0
2016-12-05T04:08:52.836Z,0
2016-12-05T04:10:01.529Z,0
2016-12-05T04:11:10.225Z,0
2016-12-05T04:12:18.914Z,0
2016-12-05T04:13:27.601Z,0
2016-12-05T04:14:36.294Z,0
2016-12-05T04:15:44.983Z,0
2016-12-05T04:16:53.674Z,0
2016-12-05T04:18:02.361Z,0
2016-12-05T04:19:11.049Z,0
2016-12-05T04:20:19.742Z,0
2016-12-05T04:21:28.435Z,0
2016-12-05T04:22:37.129Z,0
2016-12-05T04:23:45.816Z,0
2016-12-05T04:24:54.503Z,0
2016-12-05T04:26:03.196Z,0
2016-12-05T04:27:11.891Z,0
2016-12-05T04:28:20.585Z,0
2016-12-05T04:29:29.278Z,0
2016-12-05T04:30:37.973Z,0
2016-12-05T04:31:46.667Z,0
2016-12-05T04:32:55.359Z,0
2016-12-05T04:34:04.048Z,0
2016-12-05T04:35:12.740Z,0
2016-12-05T04:36:21.482Z,0
2016-12-05T04:37:30.179Z,0
2016-12-05T04:38:38.872Z,0
2016-12-05T04:39:47.559Z,0
2016-12-05T04:40:56.255Z,0
2016-12-05T04:42:04.946Z,0
2016-12-05T04:43:13.628Z,0
2016-12-05T04:44:22.643Z,0
2016-12-05T04:45:31.329Z,0
2016-12-05T04:46:40.025Z,0
2016-12-05T04:47:48.713Z,0
2016-12-05T04:48:57.404Z,0
2016-12-05T04:50:06.421Z,0
2016-12-05T04:51:15.113Z,0
2016-12-05T04:52:23.798Z,0
2016-12-05T04:53:32.586Z,0
2016-12-05T04:54:41.271Z,0
2016-12-05T04:56:22.066Z,0
2016-12-05T04:57:30.763Z,0
2016-12-05T04:58:39.459Z,0
2016-12-05T04:59:48.156Z,0
2016-12-05T05:00:56.853Z,0
2016-12-05T05:02:05.546Z,0
2016-12-05T05:03:14.237Z,0
2016-12-05T05:04:22.924Z,0
2016-12-05T05:05:31.615Z,0
2016-12-05T05:06:40.334Z,0
2016-12-05T05:07:49.339Z,0
2016-12-05T05:08:58.029Z,0
2016-12-05T05:10:06.717Z,0
2016-12-05T05:11:15.410Z,0
2016-12-05T05:12:24.096Z,0
2016-12-05T05:13:32.821Z,0
2016-12-05T05:14:41.512Z,0
2016-12-05T05:15:50.197Z,0
2016-12-05T05:16:59.198Z,0
2016-12-05T05:18:07.888Z,0
2016-12-05T05:19:16.579Z,0
2016-12-05T05:20:25.264Z,0
2016-12-05T05:21:33.956Z,0
2016-12-05T05:22:42.675Z,0
2016-12-05T05:23:51.364Z,0
2016-12-05T05:25:00.057Z,0
2016-12-05T05:26:08.752Z,0
2016-12-05T05:27:17.445Z,0
2016-12-05T05:28:26.138Z,0
2016-12-05T05:29:34.834Z,0
2016-12-05T05:30:43.534Z,0
2016-12-05T05:31:52.226Z,0
2016-12-05T05:33:00.915Z,0
2016-12-05T05:34:09.604Z,0
2016-12-05T05:35:18.298Z,0
2016-12-05T05:36:26.993Z,0
2016-12-05T05:37:35.999Z,0
2016-12-05T05:38:44.690Z,0
2016-12-05T05:39:53.380Z,0
2016-12-05T05:41:02.070Z,0
2016-12-05T05:42:10.767Z,0
2016-12-05T05:43:19.461Z,0
2016-12-05T05:44:28.149Z,0
2016-12-05T05:45:36.860Z,0
2016-12-05T05:46:45.548Z,0
2016-12-05T05:47:54.230Z,0
2016-12-05T05:49:02.924Z,0
2016-12-05T05:50:11.939Z,0
2016-12-05T05:51:20.635Z,0
2016-12-05T05:52:29.327Z,0
2016-12-05T05:53:38.021Z,0
2016-12-05T05:54:46.721Z,0
2016-12-05T05:55:55.410Z,0
2016-12-05T05:57:04.097Z,0
2016-12-05T05:58:12.785Z,0
2016-12-05T05:59:21.472Z,0
2016-12-05T06:00:30.240Z,0
2016-12-05T06:01:38.939Z,0
2016-12-05T06:02:47.697Z,0
2016-12-05T06:03:56.384Z,0
2016-12-05T06:05:05.392Z,0
2016-12-05T06:06:14.091Z,0
2016-12-05T06:07:22.812Z,0
2016-12-05T06:08:31.502Z,0
2016-12-05T06:09:40.192Z,0
2016-12-05T06:10:48.882Z,0
2016-12-05T06:11:57.568Z,0
2016-12-05T06:13:06.258Z,0
2016-12-05T06:14:14.945Z,0
2016-12-05T06:15:23.633Z,0
2016-12-05T06:16:32.329Z,0
2016-12-05T06:17:41.025Z,0
2016-12-05T06:18:49.747Z,0
2016-12-05T06:19:58.749Z,0
2016-12-05T06:21:07.441Z,0
2016-12-05T06:22:16.131Z,0
2016-12-05T06:23:24.819Z,0
2016-12-05T06:24:33.515Z,0
2016-12-05T06:25:42.205Z,0
2016-12-05T06:26:50.928Z,0
2016-12-05T06:27:59.617Z,0
2016-12-05T06:29:08.309Z,0
2016-12-05T06:30:17.351Z,0
2016-12-05T06:31:26.044Z,0
2016-12-05T06:32:34.738Z,0
2016-12-05T06:33:43.426Z,0
2016-12-05T06:34:52.120Z,0
2016-12-05T06:36:00.812Z,0
2016-12-05T06:37:09.506Z,0
2016-12-05T06:38:18.189Z,0
2016-12-05T06:39:26.887Z,0
2016-12-05T06:40:35.602Z,0
2016-12-05T06:41:44.296Z,0
2016-12-05T06:42:52.986Z,0
2016-12-05T06:44:01.670Z,0
2016-12-05T06:45:10.371Z,0
2016-12-05T06:46:19.053Z,0
2016-12-05T06:47:27.743Z,0
2016-12-05T06:48:36.749Z,0
2016-12-05T06:49:45.440Z,0
2016-12-05T06:50:54.436Z,0
2016-12-05T06:52:03.123Z,0
2016-12-05T06:53:11.817Z,0
2016-12-05T06:54:20.508Z,0
2016-12-05T06:55:29.196Z,0
2016-12-05T06:56:37.889Z,0
2016-12-05T06:57:46.585Z,0
2016-12-05T06:58:55.271Z,0
2016-12-05T07:00:03.957Z,0
2016-12-05T07:01:12.649Z,0
2016-12-05T07:02:21.342Z,0
2016-12-05T07:03:30.031Z,0
2016-12-05T07:04:38.728Z,0
2016-12-05T07:05:47.416Z,0
2016-12-05T07:06:56.103Z,0
2016-12-05T07:08:04.792Z,0
2016-12-05T07:09:13.515Z,0
2016-12-05T07:10:22.211Z,0
2016-12-05T07:11:30.896Z,0
2016-12-05T07:12:39.582Z,0
2016-12-05T07:13:48.271Z,0
2016-12-05T07:14:56.961Z,0
2016-12-05T07:16:05.651Z,0
2016-12-05T07:17:14.341Z,0
2016-12-05T07:18:23.048Z,0
2016-12-05T07:19:31.735Z,4
2016-12-05T07:20:40.427Z,4
2016-12-05T07:21:49.124Z,4
2016-12-05T07:22:57.810Z,4
2016-12-05T07:24:06.513Z,0
2016-12-05T07:25:15.548Z,4
2016-12-05T07:26:24.242Z,4
2016-12-05T07:27:32.937Z,8
2016-12-05T07:28:41.644Z,4
2016-12-05T07:29:50.329Z,8
2016-12-05T07:30:59.021Z,8
2016-12-05T07:32:07.705Z,8
2016-12-05T07:33:16.408Z,12
2016-12-05T07:34:25.101Z,8
2016-12-05T07:35:33.792Z,8
2016-12-05T07:36:42.488Z,12
2016-12-05T07:37:51.185Z,12
2016-12-05T07:38:59.869Z,16
2016-12-05T07:40:08.565Z,20
2016-12-05T07:41:17.253Z,20
2016-12-05T07:42:25.940Z,24
2016-12-05T07:43:34.634Z,24
2016-12-05T07:44:43.340Z,28
2016-12-05T07:45:52.029Z,32
2016-12-05T07:47:00.716Z,36
2016-12-05T07:48:09.402Z,40
2016-12-05T07:49:18.085Z,40
2016-12-05T07:50:26.852Z,44
2016-12-05T07:51:35.543Z,48
2016-12-05T07:52:44.250Z,52
2016-12-05T07:53:52.933Z,56
2016-12-05T07:55:01.627Z,60
2016-12-05T07:56:10.321Z,64
2016-12-05T07:57:19.006Z,64
2016-12-05T07:58:28.013Z,72
2016-12-05T07:59:36.707Z,76
2016-12-05T08:00:45.399Z,84
2016-12-05T08:01:54.092Z,92
2016-12-05T08:03:02.817Z,100
2016-12-05T08:04:11.508Z,112
2016-12-05T08:05:20.193Z,124
2016-12-05T08:06:28.881Z,132
2016-12-05T08:07:37.574Z,140
2016-12-05T08:08:46.269Z,152
2016-12-05T08:09:54.958Z,160
2016-12-05T08:11:03.655Z,176
2016-12-05T08:12:12.347Z,184
2016-12-05T08:13:21.058Z,196
2016-12-05T08:14:29.743Z,208
2016-12-05T08:15:38.437Z,216
2016-12-05T08:16:47.131Z,232
2016-12-05T08:17:55.821Z,244
2016-12-05T08:19:04.508Z,260
2016-12-05T08:20:13.193Z,272
2016-12-05T08:21:21.883Z,288
2016-12-05T08:22:30.575Z,304
2016-12-05T08:23:39.267Z,316
2016-12-05T08:24:47.959Z,332
2016-12-05T08:25:56.652Z,344
2016-12-05T08:27:05.353Z,360
2016-12-05T08:28:14.046Z,376
2016-12-05T08:29:22.734Z,388
2016-12-05T08:30:31.437Z,408
2016-12-05T08:31:40.126Z,420
2016-12-05T08:32:48.818Z,436
2016-12-05T08:33:57.508Z,448
2016-12-05T08:35:06.199Z,468
2016-12-05T08:36:14.899Z,484
2016-12-05T08:37:23.585Z,496
2016-12-05T08:38:32.274Z,508
2016-12-05T08:39:40.966Z,524
2016-12-05T08:40:49.660Z,540
2016-12-05T08:41:58.679Z,556
2016-12-05T08:43:07.694Z,572
2016-12-05T08:44:16.388Z,592
2016-12-05T08:45:25.079Z,616
2016-12-05T08:46:33.799Z,628
2016-12-05T08:47:42.491Z,648
2016-12-05T08:48:51.182Z,664
2016-12-05T08:49:59.864Z,684
2016-12-05T08:51:08.554Z,696
2016-12-05T08:52:17.247Z,716
2016-12-05T08:53:26.262Z,732
2016-12-05T08:54:34.952Z,744
2016-12-05T08:55:43.647Z,756
2016-12-05T08:56:52.332Z,764
2016-12-05T08:58:01.024Z,768
2016-12-05T08:59:09.743Z,788
2016-12-05T09:00:18.750Z,796
2016-12-05T09:01:27.441Z,808
2016-12-05T09:02:36.131Z,820
2016-12-05T09:03:44.821Z,876
2016-12-05T09:04:53.509Z,896
2016-12-05T09:06:02.201Z,856
2016-12-05T09:07:10.887Z,852
2016-12-05T09:08:19.585Z,896
2016-12-05T09:09:28.276Z,928
2016-12-05T09:10:37.292Z,900
2016-12-05T09:11:45.989Z,888
2016-12-05T09:12:54.676Z,896
2016-12-05T09:14:03.374Z,920
2016-12-05T09:15:12.381Z,968
2016-12-05T09:16:21.071Z,984
2016-12-05T09:17:29.761Z,1000
2016-12-05T09:18:38.451Z,1036
2016-12-05T09:19:47.144Z,1044
2016-12-05T09:20:55.884Z,1064
2016-12-05T09:22:04.643Z,1068
2016-12-05T09:23:13.353Z,1060
2016-12-05T09:24:22.050Z,1092
2016-12-05T09:25:30.742Z,1104
2016-12-05T09:26:39.434Z,1128
2016-12-05T09:27:48.125Z,1152
2016-12-05T09:28:56.815Z,1192
2016-12-05T09:30:05.507Z,1212
2016-12-05T09:31:14.198Z,1176
2016-12-05T09:32:22.894Z,1152
2016-12-05T09:33:31.585Z,1196
2016-12-05T09:34:40.273Z,1236
2016-12-05T09:35:48.969Z,1276
2016-12-05T09:36:57.970Z,1296
2016-12-05T09:38:06.667Z,1272
2016-12-05T09:39:15.360Z,1228
2016-12-05T09:40:24.052Z,1212
2016-12-05T09:41:32.744Z,1272
2016-12-05T09:42:41.435Z,1288
2016-12-05T09:43:50.124Z,1188
2016-12-05T09:44:58.810Z,1196
2016-12-05T09:46:07.506Z,1244
2016-12-05T09:47:16.197Z,1260
2016-12-05T09:48:24.890Z,1212
2016-12-05T09:49:33.576Z,1248
2016-12-05T09:50:42.266Z,1288
2016-12-05T09:51:51.295Z,1344
2016-12-05T09:52:59.989Z,1364
2016-12-05T09:54:08.679Z,1308
2016-12-05T09:55:17.371Z,1364
2016-12-05T09:56:26.065Z,1452
2016-12-05T09:57:34.759Z,1472
2016-12-05T09:58:43.448Z,1512
2016-12-05T09:59:52.145Z,1516
2016-12-05T10:01:00.840Z,1536
2016-12-05T10:02:09.529Z,1560
2016-12-05T10:03:18.220Z,1600
2016-12-05T10:04:26.906Z,1608
2016-12-05T10:05:35.600Z,1556
2016-12-05T10:06:44.294Z,1560
2016-12-05T10:07:52.987Z,1628
2016-12-05T10:09:01.674Z,1688
2016-12-05T10:10:10.363Z,1748
2016-12-05T10:11:19.058Z,1780
2016-12-05T10:12:27.749Z,1828
2016-12-05T10:13:36.448Z,1868
2016-12-05T10:14:45.148Z,1904
2016-12-05T10:15:53.839Z,1972
2016-12-05T10:17:02.521Z,2028
2016-12-05T10:18:11.209Z,2052
2016-12-05T10:19:19.899Z,2064
2016-12-05T10:20:28.587Z,2080
2016-12-05T10:21:37.277Z,2104
2016-12-05T10:22:45.973Z,2128
2016-12-05T10:23:54.662Z,2156
2016-12-05T10:25:03.357Z,2180
2016-12-05T10:26:12.044Z,2212
2016-12-05T10:27:20.729Z,2244
2016-12-05T10:28:29.415Z,2276
2016-12-05T10:29:38.107Z,2304
2016-12-05T10:30:46.836Z,2348
2016-12-05T10:31:55.534Z,2380
2016-12-05T10:33:04.226Z,2428
2016-12-05T10:34:12.920Z,2488
2016-12-05T10:35:21.606Z,2540
2016-12-05T10:36:30.300Z,2600
2016-12-05T10:37:38.982Z,2656
2016-12-05T10:38:47.675Z,2724
2016-12-05T10:39:56.363Z,2772
2016-12-05T10:41:05.055Z,2784
2016-12-05T10:42:13.741Z,2820
2016-12-05T10:43:22.428Z,2856
2016-12-05T10:44:31.113Z,2884
2016-12-05T10:45:39.803Z,2912
2016-12-05T10:46:48.487Z,2944
2016-12-05T10:47:57.177Z,2988
2016-12-05T10:49:05.868Z,2992
2016-12-05T10:50:14.556Z,3020
2016-12-05T10:51:23.558Z,3060
2016-12-05T10:52:32.254Z,3104
2016-12-05T10:53:40.953Z,3160
2016-12-05T10:54:49.672Z,3224
2016-12-05T10:55:58.354Z,3284
2016-12-05T10:57:07.043Z,3340
2016-12-05T10:58:15.727Z,3368
2016-12-05T10:59:24.409Z,3372
2016-12-05T11:00:33.092Z,3384
2016-12-05T11:01:41.817Z,3396
2016-12-05T11:02:50.813Z,3400
2016-12-05T11:03:59.499Z,3380
2016-12-05T11:05:08.255Z,3384
2016-12-05T11:06:16.978Z,3408
2016-12-05T11:07:25.670Z,3416
2016-12-05T11:08:34.356Z,3444
2016-12-05T11:09:43.043Z,3452
2016-12-05T11:10:52.051Z,3444
2016-12-05T11:12:00.790Z,3408
2016-12-05T11:13:10.147Z,3348
2016-12-05T11:14:18.839Z,3304
2016-12-05T11:15:27.532Z,3276
2016-12-05T11:16:36.533Z,3208
2016-12-05T11:17:45.221Z,3108
2016-12-05T11:18:53.909Z,3068
2016-12-05T11:20:02.618Z,3064
2016-12-05T11:21:11.324Z,3024
2016-12-05T11:22:20.012Z,3012
2016-12-05T11:23:28.700Z,2992
2016-12-05T11:24:37.394Z,2988
2016-12-05T11:25:46.097Z,3048
2016-12-05T11:26:54.782Z,3064
2016-12-05T11:28:03.474Z,3036
2016-12-05T11:29:12.486Z,2960
2016-12-05T11:30:21.206Z,2892
2016-12-05T11:31:29.900Z,2784
2016-12-05T11:32:38.615Z,2732
2016-12-05T11:33:47.326Z,2756
2016-12-05T11:34:56.014Z,2652
2016-12-05T11:36:04.707Z,2660
2016-12-05T11:37:13.398Z,2648
2016-12-05T11:38:22.091Z,2824
2016-12-05T11:39:30.781Z,2948
2016-12-05T11:40:39.487Z,2888
2016-12-05T11:41:48.175Z,2692
2016-12-05T11:42:56.868Z,2780
2016-12-05T11:44:05.564Z,3004
2016-12-05T11:45:14.623Z,2936
2016-12-05T11:46:23.315Z,2836
2016-12-05T11:47:32.007Z,2712
2016-12-05T11:48:40.701Z,2652
2016-12-05T11:49:49.392Z,2692
2016-12-05T11:50:58.082Z,2744
2016-12-05T11:52:06.804Z,2736
2016-12-05T11:53:15.816Z,2780
2016-12-05T11:54:24.503Z,2740
2016-12-05T11:55:33.191Z,2684
2016-12-05T11:56:41.923Z,2640
2016-12-05T11:57:50.615Z,2628
2016-12-05T11:58:59.303Z,2660
2016-12-05T12:00:07.996Z,2696
2016-12-05T12:01:16.740Z,2644
2016-12-05T12:02:25.429Z,2632
2016-12-05T12:03:34.122Z,2676
2016-12-05T12:04:42.812Z,2412
2016-12-05T12:05:51.500Z,2384
2016-12-05T12:07:00.241Z,2368
2016-12-05T12:08:09.246Z,2176
2016-12-05T12:09:17.935Z,2200
2016-12-05T12:10:26.627Z,2188
2016-12-05T12:11:35.346Z,2400
2016-12-05T12:12:44.139Z,2348
2016-12-05T12:13:52.832Z,1956
2016-12-05T12:15:01.518Z,1980
2016-12-05T12:16:10.211Z,2676
2016-12-05T12:17:18.905Z,2708
2016-12-05T12:18:27.593Z,2360
2016-12-05T12:19:36.280Z,2208
2016-12-05T12:20:44.974Z,2132
2016-12-05T12:21:53.670Z,2112
2016-12-05T12:23:02.361Z,2100
2016-12-05T12:24:11.050Z,2156
2016-12-05T12:25:19.738Z,2084
2016-12-05T12:26:28.427Z,2028
2016-12-05T12:27:37.141Z,2052
2016-12-05T12:28:46.144Z,2048
2016-12-05T12:29:54.832Z,1976
2016-12-05T12:31:03.544Z,2024
2016-12-05T12:32:12.237Z,2048
2016-12-05T12:33:20.923Z,2040
2016-12-05T12:34:29.938Z,2060
2016-12-05T12:35:38.627Z,2000
2016-12-05T12:36:47.321Z,1904
2016-12-05T12:37:56.019Z,1748
2016-12-05T12:39:04.710Z,1672
2016-12-05T12:40:13.404Z,1648
2016-12-05T12:41:22.410Z,1572
2016-12-05T12:42:31.102Z,1568
2016-12-05T12:43:39.791Z,1552
2016-12-05T12:44:48.479Z,1512
2016-12-05T12:45:57.174Z,1492
2016-12-05T12:47:05.866Z,1464
2016-12-05T12:48:14.553Z,1444
2016-12-05T12:49:23.246Z,1400
2016-12-05T12:50:31.939Z,1380
2016-12-05T12:51:40.629Z,1376
2016-12-05T12:52:49.318Z,1364
2016-12-05T12:53:58.015Z,1288
2016-12-05T12:55:06.712Z,1236
2016-12-05T12:56:15.401Z,1216
2016-12-05T12:57:24.087Z,1220
2016-12-05T12:58:32.774Z,1252
2016-12-05T12:59:41.461Z,1328
2016-12-05T13:00:50.188Z,1376
2016-12-05T13:01:58.875Z,1252
2016-12-05T13:03:07.565Z,1172
2016-12-05T13:04:16.273Z,1316
2016-12-05T13:05:24.958Z,1200
2016-12-05T13:06:33.666Z,1152
2016-12-05T13:07:42.359Z,1108
2016-12-05T13:08:51.048Z,1068
2016-12-05T13:09:59.734Z,1044
2016-12-05T13:11:40.530Z,988
2016-12-05T13:12:49.243Z,960
2016-12-05T13:13:57.923Z,948
2016-12-05T13:15:06.610Z,940
2016-12-05T13:16:15.299Z,936
2016-12-05T13:17:23.987Z,912
2016-12-05T13:18:32.995Z,884
2016-12-05T13:19:41.684Z,860
2016-12-05T13:20:50.372Z,840
2016-12-05T13:21:59.063Z,816
2016-12-05T13:23:07.751Z,796
2016-12-05T13:24:16.445Z,776
2016-12-05T13:25:25.135Z,756
2016-12-05T13:26:33.821Z,736
2016-12-05T13:27:42.511Z,716
2016-12-05T13:28:51.194Z,700
2016-12-05T13:29:59.885Z,688
2016-12-05T13:31:08.573Z,676
2016-12-05T13:32:17.258Z,664
2016-12-05T13:33:26.277Z,656
2016-12-05T13:34:34.960Z,640
2016-12-05T13:35:43.650Z,624
2016-12-05T13:36:52.335Z,612
2016-12-05T13:38:01.020Z,596
2016-12-05T13:39:09.712Z,584
2016-12-05T13:40:18.404Z,572
2016-12-05T13:41:27.159Z,560
2016-12-05T13:42:35.848Z,548
2016-12-05T13:43:44.532Z,532
2016-12-05T13:44:53.216Z,520
2016-12-05T13:46:01.902Z,508
2016-12-05T13:47:10.627Z,492
2016-12-05T13:48:19.316Z,480
2016-12-05T13:49:28.005Z,464
2016-12-05T13:50:36.697Z,452
2016-12-05T13:51:45.389Z,440
2016-12-05T13:52:54.077Z,428
2016-12-05T13:54:02.762Z,412
2016-12-05T13:55:11.455Z,400
2016-12-05T13:56:20.144Z,392
2016-12-05T13:57:28.832Z,376
2016-12-05T13:58:37.520Z,368
2016-12-05T13:59:46.210Z,356
2016-12-05T14:00:55.239Z,344
2016-12-05T14:02:03.930Z,332
2016-12-05T14:03:12.616Z,320
2016-12-05T14:04:21.300Z,304
2016-12-05T14:05:29.990Z,288
2016-12-05T14:06:38.751Z,276
2016-12-05T14:07:47.435Z,268
2016-12-05T14:08:56.130Z,256
2016-12-05T14:10:04.817Z,244
2016-12-05T14:11:13.819Z,232
2016-12-05T14:12:22.553Z,228
2016-12-05T14:13:31.231Z,212
2016-12-05T14:14:39.937Z,204
2016-12-05T14:15:48.629Z,188
2016-12-05T14:16:57.315Z,172
2016-12-05T14:18:06.088Z,164
2016-12-05T14:19:15.088Z,152
2016-12-05T14:20:23.775Z,144
2016-12-05T14:21:32.462Z,136
2016-12-05T14:22:41.146Z,128
2016-12-05T14:23:49.931Z,116
2016-12-05T14:24:58.614Z,108
2016-12-05T14:26:07.302Z,96
2016-12-05T14:27:15.985Z,88
2016-12-05T14:28:24.698Z,80
2016-12-05T14:29:33.380Z,72
2016-12-05T14:30:42.061Z,68
2016-12-05T14:31:50.745Z,60
2016-12-05T14:32:59.437Z,56
2016-12-05T14:34:08.150Z,48
2016-12-05T14:35:16.835Z,48
2016-12-05T14:36:25.744Z,40
2016-12-05T14:37:34.456Z,36
2016-12-05T14:38:43.137Z,36
2016-12-05T14:39:51.821Z,28
2016-12-05T14:41:00.529Z,28
2016-12-05T14:42:09.216Z,24
2016-12-05T14:43:17.901Z,24
2016-12-05T14:44:26.583Z,20
2016-12-05T14:45:35.259Z,16
2016-12-05T14:46:43.945Z,16
2016-12-05T14:47:52.633Z,12
2016-12-05T14:49:01.320Z,12
2016-12-05T14:50:10.006Z,12
2016-12-05T14:51:18.712Z,8
2016-12-05T14:52:27.414Z,8
2016-12-05T14:53:36.109Z,8
2016-12-05T14:54:44.796Z,4
2016-12-05T14:55:53.488Z,8
2016-12-05T14:57:02.173Z,4
2016-12-05T14:58:10.891Z,4
2016-12-05T14:59:19.575Z,4
2016-12-05T15:00:28.261Z,4
2016-12-05T15:01:36.944Z,4
2016-12-05T15:02:45.629Z,0
2016-12-05T15:03:54.315Z,0
2016-12-05T15:05:03.003Z,4
2016-12-05T15:06:11.689Z,4
2016-12-05T15:07:20.376Z,4
2016-12-05T15:08:29.059Z,0
2016-12-05T15:09:37.748Z,0
2016-12-05T15:10:46.459Z,0
2016-12-05T15:11:55.142Z,0
2016-12-05T15:13:04.135Z,0
2016-12-05T15:14:12.819Z,0
2016-12-05T15:15:21.836Z,0
2016-12-05T15:16:30.520Z,0
2016-12-05T15:17:39.211Z,0
2016-12-05T15:18:47.906Z,0
2016-12-05T15:19:56.589Z,0
2016-12-05T15:21:05.273Z,0
2016-12-05T15:22:13.962Z,0
2016-12-05T15:23:22.645Z,0
2016-12-05T15:24:31.328Z,0
2016-12-05T15:25:40.032Z,0
2016-12-05T15:26:48.713Z,0
2016-12-05T15:27:57.402Z,0
2016-12-05T15:29:06.413Z,0
2016-12-05T15:30:15.101Z,0
2016-12-05T15:31:23.788Z,0
2016-12-05T15:32:32.472Z,0
2016-12-05T15:33:41.156Z,0
2016-12-05T15:34:49.843Z,0
2016-12-05T15:35:58.531Z,0
2016-12-05T15:37:07.224Z,0
2016-12-05T15:38:15.911Z,0
2016-12-05T15:39:24.934Z,0
2016-12-05T15:40:33.621Z,0
2016-12-05T15:41:42.306Z,0
2016-12-05T15:42:50.990Z,0
2016-12-05T15:43:59.674Z,0
2016-12-05T15:45:08.368Z,0
2016-12-05T15:46:17.053Z,0
2016-12-05T15:47:25.736Z,0
2016-12-05T15:48:34.420Z,0
2016-12-05T15:49:43.103Z,0
2016-12-05T15:50:51.795Z,0
2016-12-05T15:52:00.481Z,0
2016-12-05T15:53:09.170Z,0
2016-12-05T15:54:17.868Z,0
2016-12-05T15:55:26.558Z,0
2016-12-05T15:56:35.248Z,0
2016-12-05T15:57:43.937Z,0
2016-12-05T15:58:52.626Z,0
2016-12-05T16:00:01.311Z,0
2016-12-05T16:01:09.998Z,0
2016-12-05T16:02:18.683Z,0
2016-12-05T16:03:27.372Z,0
2016-12-05T16:04:36.062Z,0
2016-12-05T16:05:44.745Z,0
2016-12-05T16:06:53.431Z,0
2016-12-05T16:08:02.118Z,0
2016-12-05T16:09:10.806Z,0
2016-12-05T16:10:19.489Z,0
2016-12-05T16:11:28.176Z,0
2016-12-05T16:12:36.866Z,0
2016-12-05T16:13:45.551Z,0
2016-12-05T16:14:54.236Z,0
2016-12-05T16:16:02.930Z,0
2016-12-05T16:17:11.614Z,0
2016-12-05T16:18:20.302Z,0